Weather at Cairns International Airport

Public forecast

Using degrees Celsius for public forecast. Weather courtesy of forecast.io.

Current aviation weather report (METAR) for Cairns International Airport

Retrieved 2020/09/24 23:30 UTC (0 seconds ago):

YBCS 242330Z AUTO 13002KT 9999 // SCT028 26/18 Q1014 FM0100 05010KT 9999 FEW040

Aviation forecast (TAF) for Cairns International Airport

Retrieved 2020/09/24 18:00 UTC (5 hours ago):

TAF YBCS 241728Z 2418/2518 17004KT 9999 SCT020 FM242300 13008KT 9999 FEW035 FM250100 05010KT 9999 FEW040 FM250900 18005KT 9999 SCT020